Time;durP1;ratioP1;P1;durP2;ratioP2;P2;SDS_P1;SDS_P2;PMS_P1;PMS_P2;Temp;Humidity;BMP_temperature;BMP_pressure;BME280_temperature;BME280_humidity;BME280_pressure;Samples;Min_cycle;Max_cycle;Signal;HPM_P1;HPM_P2
2021/08/20 00:00:35;;;;;;;;;5.00;5.00;;;;;;;;4987977;28;8836;-84
2021/08/20 00:03:03;;;;;;;;;4.20;4.20;;;;;;;;4969907;28;8858;-86
2021/08/20 00:05:30;;;;;;;;;2.20;2.20;;;;;;;;4984533;28;8885;-88
2021/08/20 00:07:59;;;;;;;;;3.20;3.20;;;;;;;;4987677;28;8853;-86
2021/08/20 00:10:26;;;;;;;;;4.80;4.80;;;;;;;;4986939;28;8881;-89
2021/08/20 00:12:54;;;;;;;;;4.80;4.80;;;;;;;;4988125;28;8876;-83
2021/08/20 00:15:21;;;;;;;;;3.40;3.20;;;;;;;;4983690;28;8976;-79
2021/08/20 00:17:48;;;;;;;;;5.80;4.80;;;;;;;;4988015;28;8893;-86
2021/08/20 00:20:16;;;;;;;;;6.80;4.60;;;;;;;;4988447;28;8899;-89
2021/08/20 00:22:43;;;;;;;;;3.60;3.60;;;;;;;;4979847;28;8869;-87
2021/08/20 00:25:13;;;;;;;;;4.00;4.00;;;;;;;;4988115;28;8940;-88
2021/08/20 00:27:40;;;;;;;;;3.00;3.00;;;;;;;;4987367;28;8873;-84
2021/08/20 00:30:09;;;;;;;;;4.00;4.00;;;;;;;;4987240;28;8861;-87
2021/08/20 00:32:37;;;;;;;;;6.60;5.00;;;;;;;;4987064;28;8891;-84
2021/08/20 00:35:06;;;;;;;;;4.80;3.60;;;;;;;;4988639;28;8872;-92
2021/08/20 00:37:35;;;;;;;;;4.20;2.80;;;;;;;;4986963;28;8895;-87
2021/08/20 00:40:03;;;;;;;;;4.60;3.80;;;;;;;;4987589;28;8895;-88
2021/08/20 00:42:32;;;;;;;;;4.20;4.20;;;;;;;;4987883;28;8849;-87
2021/08/20 00:45:00;;;;;;;;;2.40;2.40;;;;;;;;4987068;28;8881;-86
2021/08/20 00:47:27;;;;;;;;;4.00;3.80;;;;;;;;4987675;28;8877;-91
2021/08/20 00:49:55;;;;;;;;;4.20;4.20;;;;;;;;4987065;28;8911;-84
2021/08/20 00:52:24;;;;;;;;;3.20;3.20;;;;;;;;4986795;28;8942;-77
2021/08/20 00:54:51;;;;;;;;;4.80;4.80;;;;;;;;4987004;28;8891;-90
2021/08/20 00:57:19;;;;;;;;;5.40;3.80;;;;;;;;4987229;28;8873;-94
2021/08/20 00:59:48;;;;;;;;;4.00;4.00;;;;;;;;4953882;28;8892;-93
2021/08/20 01:02:15;;;;;;;;;6.80;4.80;;;;;;;;4978077;28;8813;-89
2021/08/20 01:04:43;;;;;;;;;2.00;2.00;;;;;;;;4989173;28;8988;-78
2021/08/20 01:07:10;;;;;;;;;4.50;4.50;;;;;;;;4988676;28;8886;-88
2021/08/20 01:09:37;;;;;;;;;4.60;4.60;;;;;;;;4990495;28;8889;-78
2021/08/20 01:12:05;;;;;;;;;4.50;4.50;;;;;;;;4986544;28;9714;-93
2021/08/20 01:14:35;;;;;;;;;4.00;4.00;;;;;;;;4989951;28;9517;-89
2021/08/20 01:17:05;;;;;;;;;4.00;4.00;;;;;;;;4987131;28;8885;-92
2021/08/20 01:19:33;;;;;;;;;3.75;3.75;;;;;;;;4987228;28;8880;-81
2021/08/20 01:22:01;;;;;;;;;4.25;4.25;;;;;;;;4987920;28;8841;-88
2021/08/20 01:24:29;;;;;;;;;3.50;3.50;;;;;;;;4986721;28;9689;-80
2021/08/20 01:26:58;;;;;;;;;6.25;6.25;;;;;;;;4969931;28;8980;-90
2021/08/20 01:29:25;;;;;;;;;3.00;3.00;;;;;;;;4985763;28;8873;-89
2021/08/20 01:31:53;;;;;;;;;3.00;3.00;;;;;;;;4986615;28;8948;-90
2021/08/20 01:34:20;;;;;;;;;2.40;2.40;;;;;;;;4986668;28;9717;-82
2021/08/20 01:36:47;;;;;;;;;4.00;4.00;;;;;;;;4986544;28;9642;-89
2021/08/20 01:39:15;;;;;;;;;4.50;4.50;;;;;;;;4987327;28;8858;-88
2021/08/20 01:41:42;;;;;;;;;5.40;3.80;;;;;;;;4985899;28;8868;-93
2021/08/20 01:44:11;;;;;;;;;5.00;4.00;;;;;;;;4987522;28;8900;-87
2021/08/20 01:46:38;;;;;;;;;3.60;3.60;;;;;;;;4985474;28;8869;-93
2021/08/20 01:49:07;;;;;;;;;6.60;6.60;;;;;;;;4989039;28;8972;-85
2021/08/20 01:51:34;;;;;;;;;3.00;3.00;;;;;;;;4986707;28;8899;-90
2021/08/20 01:54:03;;;;;;;;;3.20;3.20;;;;;;;;4986957;28;9012;-90
2021/08/20 01:56:32;;;;;;;;;4.00;4.00;;;;;;;;4986068;28;9690;-90
2021/08/20 01:59:00;;;;;;;;;3.75;3.75;;;;;;;;4986357;28;8877;-87
2021/08/20 02:01:30;;;;;;;;;4.50;4.50;;;;;;;;4985926;28;9652;-91
2021/08/20 02:03:57;;;;;;;;;4.00;4.00;;;;;;;;4985030;28;8877;-89
2021/08/20 02:06:24;;;;;;;;;3.00;3.00;;;;;;;;4986683;28;8885;-87
2021/08/20 02:08:52;;;;;;;;;4.00;4.00;;;;;;;;4986493;28;8879;-87
2021/08/20 02:11:19;;;;;;;;;4.00;4.00;;;;;;;;4987275;28;8931;-83
2021/08/20 02:13:47;;;;;;;;;3.20;3.20;;;;;;;;4985979;28;8857;-84
2021/08/20 02:16:14;;;;;;;;;5.00;5.00;;;;;;;;4985569;28;8893;-87
2021/08/20 02:18:43;;;;;;;;;4.40;3.80;;;;;;;;4986938;28;8880;-88
2021/08/20 02:21:11;;;;;;;;;3.40;3.00;;;;;;;;4984843;28;8872;-83
2021/08/20 02:23:38;;;;;;;;;3.20;3.20;;;;;;;;4986832;28;8987;-85
2021/08/20 02:26:06;;;;;;;;;3.80;3.80;;;;;;;;4985388;28;8885;-89
2021/08/20 02:28:33;;;;;;;;;4.60;4.60;;;;;;;;4984794;28;8917;-86
2021/08/20 02:31:00;;;;;;;;;2.80;2.80;;;;;;;;4984853;28;8810;-88
2021/08/20 02:33:28;;;;;;;;;4.80;4.80;;;;;;;;4984092;28;8880;-89
2021/08/20 02:35:57;;;;;;;;;4.00;4.00;;;;;;;;4969395;28;8891;-90
2021/08/20 02:38:24;;;;;;;;;4.00;4.00;;;;;;;;4967494;28;8887;-79
2021/08/20 02:40:52;;;;;;;;;5.20;4.40;;;;;;;;4986590;28;8877;-91
2021/08/20 02:43:19;;;;;;;;;3.60;3.60;;;;;;;;4984877;28;8881;-85
2021/08/20 02:45:46;;;;;;;;;4.60;2.00;;;;;;;;4985978;28;8889;-87
2021/08/20 02:48:13;;;;;;;;;3.60;3.60;;;;;;;;4983954;28;8857;-83
2021/08/20 02:50:41;;;;;;;;;3.80;3.80;;;;;;;;4985621;28;8891;-84
2021/08/20 02:53:10;;;;;;;;;3.00;3.00;;;;;;;;4967938;28;8884;-85
2021/08/20 02:55:37;;;;;;;;;2.60;2.60;;;;;;;;4984868;28;8873;-85
2021/08/20 02:58:05;;;;;;;;;4.00;4.00;;;;;;;;4985504;28;8885;-81
2021/08/20 03:00:33;;;;;;;;;3.20;3.20;;;;;;;;4984363;28;8879;-83
2021/08/20 03:03:00;;;;;;;;;2.60;2.60;;;;;;;;4984934;28;8926;-84
2021/08/20 03:05:27;;;;;;;;;3.20;3.20;;;;;;;;4967833;28;8877;-79
2021/08/20 03:07:55;;;;;;;;;5.00;3.00;;;;;;;;4985477;28;8942;-79
2021/08/20 03:10:24;;;;;;;;;4.80;3.00;;;;;;;;4993347;28;8984;-82
2021/08/20 03:12:51;;;;;;;;;2.00;2.00;;;;;;;;4978012;28;8865;-78
2021/08/20 03:15:18;;;;;;;;;4.00;4.00;;;;;;;;4996730;28;9402;-82
2021/08/20 03:17:45;;;;;;;;;2.20;2.20;;;;;;;;4991347;28;8870;-86
2021/08/20 03:20:13;;;;;;;;;3.60;3.40;;;;;;;;4999164;28;9317;-86
2021/08/20 03:22:40;;;;;;;;;1.80;1.80;;;;;;;;4994481;28;8865;-85
2021/08/20 03:25:08;;;;;;;;;3.00;3.00;;;;;;;;4992928;28;8912;-90
2021/08/20 03:27:37;;;;;;;;;3.40;3.40;;;;;;;;4998777;28;8841;-83
2021/08/20 03:30:06;;;;;;;;;6.00;4.20;;;;;;;;4999766;28;8868;-82
2021/08/20 03:32:33;;;;;;;;;4.00;4.00;;;;;;;;4978337;28;9010;-90
2021/08/20 03:35:00;;;;;;;;;2.60;2.60;;;;;;;;4983572;28;8879;-86
2021/08/20 03:37:28;;;;;;;;;3.20;3.20;;;;;;;;4986419;28;8958;-88
2021/08/20 03:39:55;;;;;;;;;4.80;3.00;;;;;;;;5001019;28;8958;-89
2021/08/20 03:42:23;;;;;;;;;3.80;3.80;;;;;;;;5001177;28;8951;-81
2021/08/20 03:44:52;;;;;;;;;5.40;4.80;;;;;;;;5003239;28;8860;-77
2021/08/20 03:47:19;;;;;;;;;3.00;3.00;;;;;;;;4999480;28;8931;-82
2021/08/20 03:49:46;;;;;;;;;4.80;3.20;;;;;;;;4989267;28;8857;-85
2021/08/20 03:52:14;;;;;;;;;4.00;4.00;;;;;;;;4988650;28;8931;-85
2021/08/20 03:54:41;;;;;;;;;3.40;3.40;;;;;;;;5001157;28;8952;-87
2021/08/20 03:57:08;;;;;;;;;2.40;2.40;;;;;;;;4992489;28;9025;-77
2021/08/20 03:59:35;;;;;;;;;4.20;4.20;;;;;;;;4993399;28;8914;-88
2021/08/20 04:02:05;;;;;;;;;4.00;4.00;;;;;;;;4998905;28;8831;-80
2021/08/20 04:04:33;;;;;;;;;4.80;4.80;;;;;;;;4999149;28;8853;-77
2021/08/20 04:07:00;;;;;;;;;6.20;3.60;;;;;;;;4997932;28;8891;-87
2021/08/20 04:09:27;;;;;;;;;3.40;3.40;;;;;;;;5001153;28;8872;-83
2021/08/20 04:11:55;;;;;;;;;5.60;3.00;;;;;;;;5000355;28;8881;-88
2021/08/20 04:14:22;;;;;;;;;4.40;3.80;;;;;;;;4997261;28;8876;-83
2021/08/20 04:16:49;;;;;;;;;4.00;4.00;;;;;;;;4998850;28;8870;-86
2021/08/20 04:19:18;;;;;;;;;4.40;4.40;;;;;;;;5004837;28;8882;-87
2021/08/20 04:21:45;;;;;;;;;4.40;4.40;;;;;;;;5000699;28;8958;-89
2021/08/20 04:24:14;;;;;;;;;7.00;5.00;;;;;;;;4995748;28;8848;-84
2021/08/20 04:26:42;;;;;;;;;4.60;4.60;;;;;;;;4992765;28;8856;-87
2021/08/20 04:29:09;;;;;;;;;5.20;5.20;;;;;;;;5000205;28;8852;-86
2021/08/20 04:31:37;;;;;;;;;3.60;3.00;;;;;;;;4995976;28;8831;-78
2021/08/20 04:34:04;;;;;;;;;3.20;3.20;;;;;;;;4995374;28;8869;-87
2021/08/20 04:36:33;;;;;;;;;3.80;3.80;;;;;;;;4978863;28;8879;-87
2021/08/20 04:39:00;;;;;;;;;3.60;3.60;;;;;;;;4982209;28;8973;-85
2021/08/20 04:41:27;;;;;;;;;7.00;3.20;;;;;;;;4981971;28;8943;-86
2021/08/20 04:43:56;;;;;;;;;4.00;4.00;;;;;;;;5004735;28;8872;-87
2021/08/20 04:46:24;;;;;;;;;2.40;2.40;;;;;;;;5001503;28;8852;-89
2021/08/20 04:48:51;;;;;;;;;4.20;4.20;;;;;;;;4997871;28;8999;-86
2021/08/20 04:51:19;;;;;;;;;4.20;4.20;;;;;;;;4997499;28;8870;-82
2021/08/20 04:53:49;;;;;;;;;8.60;3.60;;;;;;;;5002218;28;8860;-83
2021/08/20 04:56:16;;;;;;;;;4.20;4.20;;;;;;;;4967017;28;8885;-89
2021/08/20 04:58:44;;;;;;;;;5.80;5.00;;;;;;;;4974873;28;8869;-84
2021/08/20 05:01:12;;;;;;;;;3.80;3.80;;;;;;;;4984552;28;8829;-84
2021/08/20 05:03:40;;;;;;;;;3.00;3.00;;;;;;;;4985766;28;8876;-87
2021/08/20 05:06:07;;;;;;;;;4.25;4.25;;;;;;;;4985812;28;9008;-86
2021/08/20 05:08:36;;;;;;;;;4.00;4.00;;;;;;;;4988141;28;8895;-88
2021/08/20 05:11:06;;;;;;;;;6.25;4.00;;;;;;;;4984511;28;8877;-85
2021/08/20 05:13:33;;;;;;;;;5.50;5.50;;;;;;;;4968689;28;8885;-88
2021/08/20 05:16:15;;;;;;;;;2.00;2.00;;;;;;;;4974800;28;8841;-87
2021/08/20 05:18:43;;;;;;;;;6.20;4.00;;;;;;;;4986667;28;8967;-88
2021/08/20 05:21:10;;;;;;;;;4.00;4.00;;;;;;;;4987620;28;8899;-86
2021/08/20 05:23:37;;;;;;;;;7.00;6.25;;;;;;;;4995298;28;8861;-78
2021/08/20 05:26:06;;;;;;;;;3.60;3.60;;;;;;;;5000053;28;8926;-84
2021/08/20 05:28:33;;;;;;;;;5.00;4.00;;;;;;;;4998010;28;8868;-85
2021/08/20 05:31:01;;;;;;;;;4.50;4.50;;;;;;;;4995807;28;8971;-75
2021/08/20 05:33:29;;;;;;;;;4.00;4.00;;;;;;;;4993143;28;8990;-86
2021/08/20 05:35:56;;;;;;;;;4.00;4.00;;;;;;;;4999714;28;8876;-77
2021/08/20 05:38:24;;;;;;;;;5.00;5.00;;;;;;;;4994148;28;8908;-81
2021/08/20 05:40:51;;;;;;;;;3.00;3.00;;;;;;;;5001427;28;8848;-84
2021/08/20 05:43:20;;;;;;;;;3.60;3.60;;;;;;;;4998703;28;8902;-88
2021/08/20 05:45:47;;;;;;;;;6.00;4.00;;;;;;;;4992431;28;8937;-86
2021/08/20 05:48:14;;;;;;;;;5.75;5.75;;;;;;;;4998531;28;10938;-86
2021/08/20 05:50:42;;;;;;;;;7.00;5.50;;;;;;;;4989771;28;8864;-89
2021/08/20 05:53:10;;;;;;;;;4.75;4.75;;;;;;;;4996542;28;8869;-84
2021/08/20 05:55:37;;;;;;;;;5.00;5.00;;;;;;;;4995682;28;9591;-87
2021/08/20 05:58:05;;;;;;;;;5.00;5.00;;;;;;;;4984209;28;8901;-86
2021/08/20 06:00:34;;;;;;;;;3.60;3.60;;;;;;;;4982781;28;8907;-79
2021/08/20 06:03:01;;;;;;;;;4.80;4.80;;;;;;;;4983572;28;8947;-79
2021/08/20 06:05:29;;;;;;;;;3.00;3.00;;;;;;;;4984260;28;8868;-73
2021/08/20 06:07:56;;;;;;;;;4.50;4.50;;;;;;;;4980899;28;8896;-76
2021/08/20 06:10:24;;;;;;;;;4.50;4.50;;;;;;;;4990023;28;8877;-73
2021/08/20 06:12:51;;;;;;;;;5.80;5.80;;;;;;;;4975987;28;8868;-73
2021/08/20 06:15:18;;;;;;;;;4.20;3.00;;;;;;;;4984945;28;8889;-72
2021/08/20 06:17:47;;;;;;;;;3.20;3.20;;;;;;;;4985541;28;8889;-73
2021/08/20 06:20:15;;;;;;;;;4.60;4.60;;;;;;;;4984590;28;9012;-73
2021/08/20 06:22:42;;;;;;;;;4.00;4.00;;;;;;;;4985323;28;8857;-73
2021/08/20 06:25:11;;;;;;;;;4.00;4.00;;;;;;;;4984018;28;8889;-72
2021/08/20 06:27:38;;;;;;;;;4.40;4.40;;;;;;;;4985053;28;9450;-73
2021/08/20 06:30:06;;;;;;;;;4.00;4.00;;;;;;;;4983476;28;8879;-72
2021/08/20 06:32:34;;;;;;;;;4.80;4.80;;;;;;;;4984199;28;8988;-74
2021/08/20 06:35:02;;;;;;;;;4.00;2.20;;;;;;;;4984948;28;8861;-74
2021/08/20 06:37:29;;;;;;;;;4.00;4.00;;;;;;;;4981843;28;8881;-73
2021/08/20 06:39:57;;;;;;;;;5.00;5.00;;;;;;;;4967473;28;8915;-72
2021/08/20 06:42:24;;;;;;;;;4.80;4.80;;;;;;;;4984440;28;8872;-73
2021/08/20 06:44:52;;;;;;;;;7.50;7.00;;;;;;;;4993591;28;8871;-73
2021/08/20 06:47:22;;;;;;;;;7.25;5.00;;;;;;;;4991691;28;9672;-73
2021/08/20 06:49:51;;;;;;;;;5.50;5.50;;;;;;;;4998508;28;8864;-73
2021/08/20 06:52:20;;;;;;;;;5.20;3.60;;;;;;;;4978532;28;8881;-72
2021/08/20 06:54:47;;;;;;;;;5.00;5.00;;;;;;;;4997118;28;8883;-72
2021/08/20 06:57:14;;;;;;;;;3.40;3.40;;;;;;;;4994663;28;8891;-72
2021/08/20 06:59:42;;;;;;;;;6.00;4.60;;;;;;;;4995113;28;9623;-73
2021/08/20 07:02:09;;;;;;;;;8.40;4.20;;;;;;;;4998959;28;8858;-72
2021/08/20 07:04:36;;;;;;;;;4.40;4.40;;;;;;;;4994883;28;9003;-73
2021/08/20 07:07:04;;;;;;;;;7.60;6.60;;;;;;;;5000225;28;8880;-75
2021/08/20 07:09:32;;;;;;;;;4.40;4.40;;;;;;;;4997362;28;8979;-72
2021/08/20 07:12:00;;;;;;;;;5.80;5.00;;;;;;;;4992779;28;8873;-74
2021/08/20 07:14:27;;;;;;;;;4.00;4.00;;;;;;;;4998890;28;8890;-72
2021/08/20 07:16:57;;;;;;;;;5.00;5.00;;;;;;;;4996996;28;8991;-72
2021/08/20 07:19:24;;;;;;;;;6.40;4.00;;;;;;;;4992879;28;8891;-72
2021/08/20 07:21:51;;;;;;;;;4.20;4.20;;;;;;;;4996504;28;8902;-73
2021/08/20 07:24:18;;;;;;;;;5.20;5.20;;;;;;;;5000153;28;8888;-74
2021/08/20 07:26:47;;;;;;;;;4.40;4.40;;;;;;;;4997057;28;8856;-74
2021/08/20 07:29:14;;;;;;;;;4.00;4.00;;;;;;;;4996796;28;8902;-74
2021/08/20 07:31:41;;;;;;;;;5.80;5.00;;;;;;;;4994276;28;8829;-74
2021/08/20 07:34:08;;;;;;;;;3.80;3.80;;;;;;;;4981600;28;8905;-75
2021/08/20 07:36:37;;;;;;;;;4.40;4.40;;;;;;;;4983193;28;8903;-74
2021/08/20 07:39:04;;;;;;;;;5.20;3.80;;;;;;;;4972802;28;8885;-73
2021/08/20 07:41:31;;;;;;;;;5.20;3.80;;;;;;;;4984105;28;8857;-73
2021/08/20 07:44:00;;;;;;;;;5.80;5.80;;;;;;;;4984532;28;8873;-74
2021/08/20 07:46:27;;;;;;;;;4.20;4.20;;;;;;;;4983020;28;8975;-74
2021/08/20 07:48:55;;;;;;;;;5.80;5.80;;;;;;;;4984226;28;8877;-74
2021/08/20 07:51:22;;;;;;;;;5.60;5.60;;;;;;;;4966344;28;8992;-75
2021/08/20 07:53:49;;;;;;;;;5.20;3.80;;;;;;;;4984356;28;8873;-76
2021/08/20 07:56:16;;;;;;;;;5.00;5.00;;;;;;;;4983870;28;8873;-77
2021/08/20 07:58:43;;;;;;;;;3.80;3.80;;;;;;;;4997369;28;8883;-77
2021/08/20 08:01:12;;;;;;;;;4.80;3.20;;;;;;;;5000415;28;8848;-77
2021/08/20 08:03:40;;;;;;;;;6.80;4.00;;;;;;;;4982303;28;8864;-77
2021/08/20 08:06:11;;;;;;;;;3.80;3.80;;;;;;;;5001637;28;8918;-77
2021/08/20 08:08:38;;;;;;;;;4.40;3.20;;;;;;;;4976701;28;8968;-77
2021/08/20 08:11:05;;;;;;;;;6.00;4.00;;;;;;;;4997044;28;9003;-76
2021/08/20 08:13:33;;;;;;;;;5.60;5.00;;;;;;;;4998610;28;8857;-78
2021/08/20 08:16:02;;;;;;;;;3.60;3.60;;;;;;;;4982222;28;8872;-76
2021/08/20 08:18:30;;;;;;;;;4.40;4.00;;;;;;;;4962846;28;8999;-77
2021/08/20 08:20:58;;;;;;;;;4.00;4.00;;;;;;;;4984408;28;9781;-78
2021/08/20 08:23:25;;;;;;;;;2.40;2.40;;;;;;;;4985603;28;8899;-77
2021/08/20 08:25:53;;;;;;;;;3.00;3.00;;;;;;;;5016679;28;8888;-78
2021/08/20 08:28:22;;;;;;;;;2.60;2.60;;;;;;;;4983586;28;8876;-78
2021/08/20 08:30:50;;;;;;;;;4.60;4.60;;;;;;;;4998613;28;8823;-77
2021/08/20 08:33:19;;;;;;;;;3.80;3.80;;;;;;;;5008120;28;8879;-77
2021/08/20 08:35:48;;;;;;;;;2.00;2.00;;;;;;;;4998762;28;8955;-78
2021/08/20 08:38:16;;;;;;;;;3.20;3.20;;;;;;;;5001269;28;8892;-79
2021/08/20 08:40:45;;;;;;;;;4.40;3.40;;;;;;;;4998799;28;8918;-75
2021/08/20 08:43:14;;;;;;;;;3.00;3.00;;;;;;;;4998192;28;8911;-78
2021/08/20 08:45:42;;;;;;;;;4.40;4.00;;;;;;;;4998537;28;8888;-77
2021/08/20 08:48:10;;;;;;;;;2.00;2.00;;;;;;;;4998764;28;8883;-77
2021/08/20 08:50:39;;;;;;;;;3.00;3.00;;;;;;;;5005352;28;8868;-76
2021/08/20 08:53:08;;;;;;;;;5.20;2.60;;;;;;;;4992847;28;8893;-78
2021/08/20 08:55:35;;;;;;;;;3.00;3.00;;;;;;;;4967752;28;9638;-78
2021/08/20 08:58:06;;;;;;;;;4.60;3.00;;;;;;;;4976783;28;8868;-75
2021/08/20 09:00:35;;;;;;;;;2.00;2.00;;;;;;;;4976002;28;8797;-77
2021/08/20 09:03:02;;;;;;;;;4.00;2.00;;;;;;;;4962918;28;8853;-75
2021/08/20 09:05:43;;;;;;;;;4.40;3.00;;;;;;;;4963186;28;9029;-76
2021/08/20 09:08:14;;;;;;;;;2.40;2.40;;;;;;;;4965697;28;8903;-76
2021/08/20 09:10:49;;;;;;;;;3.20;3.20;;;;;;;;4967016;28;8869;-76
2021/08/20 09:13:17;;;;;;;;;1.80;1.80;;;;;;;;4966276;28;8971;-76
2021/08/20 09:15:46;;;;;;;;;3.60;3.60;;;;;;;;4962948;28;8882;-77
2021/08/20 09:18:22;;;;;;;;;2.00;2.00;;;;;;;;4966469;28;8877;-75
2021/08/20 09:20:50;;;;;;;;;3.40;3.40;;;;;;;;4966670;28;8892;-76
2021/08/20 09:23:21;;;;;;;;;2.80;2.80;;;;;;;;4966227;28;9690;-76
2021/08/20 09:25:50;;;;;;;;;3.00;3.00;;;;;;;;4949644;28;8894;-75
2021/08/20 09:28:20;;;;;;;;;2.00;2.00;;;;;;;;4966589;28;9663;-77
2021/08/20 09:31:09;;;;;;;;;2.80;2.80;;;;;;;;4965424;28;8844;-77
2021/08/20 09:33:38;;;;;;;;;2.40;2.40;;;;;;;;4963374;28;8861;-76
2021/08/20 09:36:07;;;;;;;;;1.40;1.40;;;;;;;;4946419;28;8876;-76
2021/08/20 09:38:38;;;;;;;;;0.80;0.80;;;;;;;;4967213;28;8931;-77
2021/08/20 09:41:07;;;;;;;;;1.00;1.00;;;;;;;;4965633;28;8881;-76
2021/08/20 09:43:36;;;;;;;;;1.80;1.80;;;;;;;;4966300;28;9898;-76
2021/08/20 09:46:10;;;;;;;;;1.00;1.00;;;;;;;;4962931;28;8880;-76
2021/08/20 09:48:43;;;;;;;;;2.20;2.20;;;;;;;;4965501;28;8892;-78
2021/08/20 09:51:12;;;;;;;;;2.00;2.00;;;;;;;;4966219;28;8908;-75
2021/08/20 09:53:41;;;;;;;;;3.80;2.60;;;;;;;;4977469;28;8876;-76
2021/08/20 09:56:09;;;;;;;;;0.60;0.60;;;;;;;;4982347;28;8950;-77
2021/08/20 09:58:36;;;;;;;;;0.60;0.60;;;;;;;;4982886;28;8869;-75
2021/08/20 10:01:05;;;;;;;;;2.00;2.00;;;;;;;;4966619;28;8817;-75
2021/08/20 10:03:33;;;;;;;;;0.60;0.60;;;;;;;;4985397;28;8865;-74
2021/08/20 10:06:02;;;;;;;;;2.40;2.40;;;;;;;;4983975;28;8901;-74
2021/08/20 10:08:30;;;;;;;;;1.80;1.80;;;;;;;;4985265;28;8869;-74
2021/08/20 10:11:01;;;;;;;;;3.60;2.00;;;;;;;;4984149;28;8898;-74
2021/08/20 10:13:29;;;;;;;;;1.80;1.80;;;;;;;;4986821;28;8892;-74
2021/08/20 10:16:01;;;;;;;;;1.20;1.20;;;;;;;;4982715;28;8899;-74
2021/08/20 10:18:29;;;;;;;;;2.20;2.20;;;;;;;;4984319;28;8875;-75
2021/08/20 10:20:57;;;;;;;;;2.40;2.40;;;;;;;;4982700;28;8849;-73
2021/08/20 10:23:25;;;;;;;;;3.00;3.00;;;;;;;;4983976;28;8861;-74
2021/08/20 10:25:54;;;;;;;;;0.20;0.00;;;;;;;;4984498;28;8869;-74
2021/08/20 10:28:23;;;;;;;;;1.00;1.00;;;;;;;;4984054;28;8901;-74
2021/08/20 10:30:51;;;;;;;;;3.20;2.00;;;;;;;;4983083;28;8821;-74
2021/08/20 10:33:30;;;;;;;;;2.00;1.80;;;;;;;;4984844;28;8873;-74
2021/08/20 10:35:58;;;;;;;;;0.00;0.00;;;;;;;;4983940;28;8853;-76
2021/08/20 10:38:27;;;;;;;;;1.00;1.00;;;;;;;;4997110;28;8872;-75
2021/08/20 10:41:11;;;;;;;;;0.80;0.80;;;;;;;;4981333;28;8865;-75
2021/08/20 10:43:55;;;;;;;;;2.80;2.80;;;;;;;;4980418;28;8912;-76
2021/08/20 10:47:07;;;;;;;;;1.20;1.20;;;;;;;;4988140;28;8879;-76
2021/08/20 10:49:45;;;;;;;;;2.20;2.20;;;;;;;;4984177;28;8906;-77
2021/08/20 10:52:35;;;;;;;;;1.60;1.60;;;;;;;;4995835;28;8860;-74
2021/08/20 10:55:26;;;;;;;;;3.00;3.00;;;;;;;;4998565;28;9654;-76
2021/08/20 10:57:59;;;;;;;;;1.00;1.00;;;;;;;;5000870;28;8881;-75
2021/08/20 11:00:28;;;;;;;;;3.00;2.00;;;;;;;;4997566;28;8785;-73
2021/08/20 11:02:57;;;;;;;;;2.00;2.00;;;;;;;;4991754;28;8900;-75
2021/08/20 11:05:44;;;;;;;;;2.00;2.00;;;;;;;;4989530;28;8892;-75
2021/08/20 11:08:45;;;;;;;;;2.00;2.00;;;;;;;;4993618;28;8880;-74
2021/08/20 11:11:47;;;;;;;;;2.60;2.60;;;;;;;;4921328;29;9023;-75
2021/08/20 11:14:41;;;;;;;;;3.60;2.20;;;;;;;;4920789;29;9538;-75
2021/08/20 11:17:12;;;;;;;;;1.40;1.40;;;;;;;;4953091;28;8934;-76
2021/08/20 11:20:00;;;;;;;;;1.80;1.80;;;;;;;;4976476;28;8872;-79
2021/08/20 11:22:32;;;;;;;;;0.80;0.80;;;;;;;;4995294;28;9021;-78
2021/08/20 11:25:27;;;;;;;;;1.40;1.40;;;;;;;;4992540;28;8967;-77
2021/08/20 11:28:05;;;;;;;;;3.40;2.00;;;;;;;;4956408;28;9019;-78
2021/08/20 11:30:34;;;;;;;;;2.00;2.00;;;;;;;;4990163;28;8809;-78
2021/08/20 11:33:24;;;;;;;;;1.80;1.80;;;;;;;;4991975;28;8991;-77
2021/08/20 11:35:54;;;;;;;;;1.80;1.80;;;;;;;;4976043;28;8873;-76
2021/08/20 11:38:27;;;;;;;;;1.80;1.80;;;;;;;;4976191;28;8869;-78
2021/08/20 11:40:55;;;;;;;;;1.80;1.80;;;;;;;;4983816;28;9019;-77
2021/08/20 11:43:23;;;;;;;;;2.80;2.80;;;;;;;;4982499;28;8861;-79
2021/08/20 11:45:55;;;;;;;;;1.80;1.80;;;;;;;;4982663;28;8881;-77
2021/08/20 11:48:24;;;;;;;;;0.80;0.80;;;;;;;;4983634;28;8919;-75
2021/08/20 11:50:51;;;;;;;;;1.80;1.80;;;;;;;;4982826;28;8868;-77
2021/08/20 11:53:25;;;;;;;;;1.20;1.20;;;;;;;;4984095;28;8889;-78
2021/08/20 11:56:07;;;;;;;;;1.40;0.00;;;;;;;;4984431;28;8887;-75
2021/08/20 11:58:34;;;;;;;;;2.60;2.00;;;;;;;;4970739;28;11553;-77
2021/08/20 12:01:02;;;;;;;;;0.80;0.80;;;;;;;;4986599;28;8793;-75
2021/08/20 12:03:35;;;;;;;;;2.20;2.20;;;;;;;;4987064;28;9687;-77
2021/08/20 12:06:09;;;;;;;;;1.00;1.00;;;;;;;;4983705;28;8888;-75
2021/08/20 12:08:37;;;;;;;;;1.40;1.40;;;;;;;;4968259;28;8877;-76
2021/08/20 12:11:05;;;;;;;;;0.80;0.80;;;;;;;;4978212;28;9679;-76
2021/08/20 12:13:40;;;;;;;;;1.00;1.00;;;;;;;;4987095;28;8869;-76
2021/08/20 12:16:08;;;;;;;;;1.80;1.80;;;;;;;;4985641;28;8885;-76
2021/08/20 12:18:42;;;;;;;;;2.20;2.20;;;;;;;;4987644;28;8999;-76
2021/08/20 12:21:15;;;;;;;;;2.40;0.60;;;;;;;;4986944;28;8881;-76
2021/08/20 12:23:59;;;;;;;;;0.80;0.80;;;;;;;;4984341;28;8884;-75
2021/08/20 12:26:26;;;;;;;;;1.60;1.60;;;;;;;;4983057;28;8905;-76
2021/08/20 12:28:54;;;;;;;;;1.40;1.40;;;;;;;;4987137;28;8897;-76
2021/08/20 12:31:25;;;;;;;;;1.80;1.80;;;;;;;;4986764;28;8844;-76
2021/08/20 12:34:02;;;;;;;;;0.80;0.80;;;;;;;;4986356;28;8877;-76
2021/08/20 12:36:30;;;;;;;;;0.80;0.80;;;;;;;;4987499;28;8889;-75
2021/08/20 12:39:10;;;;;;;;;0.80;0.80;;;;;;;;4979827;28;8881;-76
2021/08/20 12:41:38;;;;;;;;;0.80;0.80;;;;;;;;4976190;28;8911;-75
2021/08/20 12:44:06;;;;;;;;;0.00;0.00;;;;;;;;4986889;28;8869;-76
2021/08/20 12:46:38;;;;;;;;;1.40;0.00;;;;;;;;4984850;28;8904;-76
2021/08/20 12:49:08;;;;;;;;;0.00;0.00;;;;;;;;4987447;28;8867;-77
2021/08/20 12:51:37;;;;;;;;;0.40;0.40;;;;;;;;4985550;28;8879;-76
2021/08/20 12:54:07;;;;;;;;;0.60;0.60;;;;;;;;4986175;28;8903;-76
2021/08/20 12:56:35;;;;;;;;;0.00;0.00;;;;;;;;4986060;28;9059;-77
2021/08/20 12:59:05;;;;;;;;;1.80;0.20;;;;;;;;4986772;28;9003;-76
2021/08/20 13:01:33;;;;;;;;;0.00;0.00;;;;;;;;4968539;28;9720;-77
2021/08/20 13:04:01;;;;;;;;;0.40;0.40;;;;;;;;4986378;28;9063;-76
2021/08/20 13:06:29;;;;;;;;;0.00;0.00;;;;;;;;4986200;28;8876;-76
2021/08/20 13:08:58;;;;;;;;;0.00;0.00;;;;;;;;4985565;28;8931;-76
2021/08/20 13:11:25;;;;;;;;;0.00;0.00;;;;;;;;4986798;28;8988;-77
2021/08/20 13:13:52;;;;;;;;;0.00;0.00;;;;;;;;4985735;28;9491;-76
2021/08/20 13:16:20;;;;;;;;;0.00;0.00;;;;;;;;4986586;28;8892;-75
2021/08/20 13:18:47;;;;;;;;;0.00;0.00;;;;;;;;4985340;28;9184;-76
2021/08/20 13:21:19;;;;;;;;;0.00;0.00;;;;;;;;4986018;28;8907;-76
2021/08/20 13:23:48;;;;;;;;;0.00;0.00;;;;;;;;4986830;28;8947;-76
2021/08/20 13:26:16;;;;;;;;;0.00;0.00;;;;;;;;4985206;28;8865;-76
2021/08/20 13:28:44;;;;;;;;;0.00;0.00;;;;;;;;4986609;28;9359;-76
2021/08/20 13:31:11;;;;;;;;;0.00;0.00;;;;;;;;4967290;28;8793;-75
2021/08/20 13:33:39;;;;;;;;;0.00;0.00;;;;;;;;4986057;28;9659;-76
2021/08/20 13:36:07;;;;;;;;;0.00;0.00;;;;;;;;4985913;28;8865;-76
2021/08/20 13:38:36;;;;;;;;;0.00;0.00;;;;;;;;4974353;28;8897;-76
2021/08/20 13:41:05;;;;;;;;;0.40;0.00;;;;;;;;4986355;28;8904;-79
2021/08/20 13:43:33;;;;;;;;;0.00;0.00;;;;;;;;4983857;28;8869;-78
2021/08/20 13:46:01;;;;;;;;;0.00;0.00;;;;;;;;4982380;28;8869;-78
2021/08/20 13:48:28;;;;;;;;;0.00;0.00;;;;;;;;4962578;28;9007;-79
2021/08/20 13:50:56;;;;;;;;;0.00;0.00;;;;;;;;4966170;28;8891;-77
2021/08/20 13:53:24;;;;;;;;;0.00;0.00;;;;;;;;4985597;28;9762;-78
2021/08/20 13:55:51;;;;;;;;;0.00;0.00;;;;;;;;4984986;28;8893;-79
2021/08/20 13:58:21;;;;;;;;;0.00;0.00;;;;;;;;4986252;28;8888;-76
2021/08/20 14:00:48;;;;;;;;;0.00;0.00;;;;;;;;4982185;28;8936;-77
2021/08/20 14:03:15;;;;;;;;;0.00;0.00;;;;;;;;4986371;28;8877;-78
2021/08/20 14:05:43;;;;;;;;;0.00;0.00;;;;;;;;4982303;28;8879;-79
2021/08/20 14:08:10;;;;;;;;;0.00;0.00;;;;;;;;4985190;28;8888;-78
2021/08/20 14:10:38;;;;;;;;;0.00;0.00;;;;;;;;4984056;28;8905;-76
2021/08/20 14:13:05;;;;;;;;;0.00;0.00;;;;;;;;4995905;28;8857;-76
2021/08/20 14:15:34;;;;;;;;;0.00;0.00;;;;;;;;5000588;28;8889;-77
2021/08/20 14:18:01;;;;;;;;;0.00;0.00;;;;;;;;4995458;28;8885;-77
2021/08/20 14:20:28;;;;;;;;;0.00;0.00;;;;;;;;4984020;28;8884;-76
2021/08/20 14:22:55;;;;;;;;;0.00;0.00;;;;;;;;4982097;28;8934;-77
2021/08/20 14:25:23;;;;;;;;;0.00;0.00;;;;;;;;4984476;28;8891;-77
2021/08/20 14:27:50;;;;;;;;;0.80;0.80;;;;;;;;4982575;28;8988;-78
2021/08/20 14:30:18;;;;;;;;;0.00;0.00;;;;;;;;4984108;28;8901;-76
2021/08/20 14:32:46;;;;;;;;;0.00;0.00;;;;;;;;4984819;28;8868;-78
2021/08/20 14:35:15;;;;;;;;;0.20;0.20;;;;;;;;4984004;28;8893;-77
2021/08/20 14:37:42;;;;;;;;;1.80;1.80;;;;;;;;4984316;28;8950;-77
2021/08/20 14:40:11;;;;;;;;;0.20;0.20;;;;;;;;4984387;28;8906;-76
2021/08/20 14:42:38;;;;;;;;;1.00;1.00;;;;;;;;4984665;28;8896;-77
2021/08/20 14:45:06;;;;;;;;;0.00;0.00;;;;;;;;4983573;28;9662;-76
2021/08/20 14:47:34;;;;;;;;;2.20;2.20;;;;;;;;4983652;28;8885;-78
2021/08/20 14:50:03;;;;;;;;;0.00;0.00;;;;;;;;4985097;28;8987;-75
2021/08/20 14:52:31;;;;;;;;;0.00;0.00;;;;;;;;4983786;28;8897;-73
2021/08/20 14:54:58;;;;;;;;;0.00;0.00;;;;;;;;4983562;28;8895;-76
2021/08/20 14:57:26;;;;;;;;;1.00;0.00;;;;;;;;4982727;28;8873;-77
2021/08/20 14:59:53;;;;;;;;;0.00;0.00;;;;;;;;4984392;28;8881;-77
2021/08/20 15:02:20;;;;;;;;;0.00;0.00;;;;;;;;4982839;28;8827;-77
2021/08/20 15:04:47;;;;;;;;;0.00;0.00;;;;;;;;4984185;28;8887;-77
2021/08/20 15:07:16;;;;;;;;;0.00;0.00;;;;;;;;4983682;28;9004;-75